Observation data for Denver City on 12/02/2020      Previous  Date       Current Mesonet Observations  Soil Data  Daily Summary Page  Observations in Plain Language
KDVS 020600Z 00017G25KT 05/M09 A3003 RMK A01 T00451090  RH  037%=      5-min Rain = 0
KDVS 020605Z 36016G21KT 05/M09 A3003 RMK A01 T00451089  RH  037%=      5-min Rain = 0
KDVS 020610Z 36015KT 04/M09 A3004 RMK A01 T00431089  RH  037%=      5-min Rain = 0
KDVS 020615Z 36015G20KT 04/M09 A3004 RMK A01 T00431089  RH  037%=      5-min Rain = 0
KDVS 020620Z 35015G20KT 04/M09 A3004 RMK A01 T00411089  RH  038%=      5-min Rain = 0
KDVS 020625Z 35015KT 04/M09 A3004 RMK A01 T00411088  RH  038%=      5-min Rain = 0
KDVS 020630Z 35015G20KT 04/M09 A3004 RMK A01 T00391088  RH  039%=      5-min Rain = 0
KDVS 020635Z 35016G22KT 04/M09 A3004 RMK A01 T00381087  RH  039%=      5-min Rain = 0
KDVS 020640Z 35015G21KT 04/M09 A3004 RMK A01 T00371087  RH  040%=      5-min Rain = 0
KDVS 020645Z 35016G22KT 04/M09 A3005 RMK A01 T00361086  RH  040%=      5-min Rain = 0
KDVS 020650Z 35016G22KT 04/M09 A3005 RMK A01 T00361086  RH  040%=      5-min Rain = 0
KDVS 020655Z 35016G22KT 04/M09 A3005 RMK A01 T00351086  RH  041%=      5-min Rain = 0
KDVS 020700Z 35017G23KT 04/M09 A3005 RMK A01 T00351085  RH  041%=      5-min Rain = 0
KDVS 020705Z 35019G25KT 04/M08 A3004 RMK A01 T00351084  RH  041%=      5-min Rain = 0
KDVS 020710Z 35018G23KT 04/M08 A3004 RMK A01 T00351084  RH  041%=      5-min Rain = 0
KDVS 020715Z 36018G25KT 04/M08 A3004 RMK A01 T00351083  RH  042%=      5-min Rain = 0
KDVS 020720Z 35018G24KT 04/M08 A3004 RMK A01 T00351083  RH  042%=      5-min Rain = 0
KDVS 020725Z 35018G23KT 03/M08 A3004 RMK A01 T00341082  RH  042%=      5-min Rain = 0
KDVS 020730Z 35017KT 03/M08 A3004 RMK A01 T00341082  RH  042%=      5-min Rain = 0
KDVS 020735Z 35019G24KT 03/M08 A3005 RMK A01 T00341081  RH  043%=      5-min Rain = 0
KDVS 020740Z 35017G22KT 03/M08 A3005 RMK A01 T00341080  RH  043%=      5-min Rain = 0
KDVS 020745Z 35018G25KT 03/M08 A3005 RMK A01 T00321079  RH  044%=      5-min Rain = 0
KDVS 020750Z 35018G23KT 03/M08 A3005 RMK A01 T00331078  RH  044%=      5-min Rain = 0
KDVS 020755Z 35016G23KT 03/M08 A3006 RMK A01 T00311078  RH  044%=      5-min Rain = 0
KDVS 020800Z 35018KT 03/M08 A3006 RMK A01 T00311078  RH  045%=      5-min Rain = 0
KDVS 020805Z 35017G22KT 03/M08 A3006 RMK A01 T00301078  RH  045%=      5-min Rain = 0
KDVS 020810Z 35016G21KT 03/M08 A3006 RMK A01 T00281078  RH  045%=      5-min Rain = 0
KDVS 020815Z 35018G23KT 03/M08 A3007 RMK A01 T00281077  RH  046%=      5-min Rain = 0
KDVS 020820Z 35016G23KT 03/M08 A3007 RMK A01 T00271076  RH  046%=      5-min Rain = 0
KDVS 020825Z 35015G21KT 03/M08 A3008 RMK A01 T00271075  RH  047%=      5-min Rain = 0
KDVS 020830Z 35015G20KT 03/M07 A3008 RMK A01 T00261073  RH  048%=      5-min Rain = 0
KDVS 020835Z 35015G20KT 03/M07 A3008 RMK A01 T00251070  RH  049%=      5-min Rain = 0
KDVS 020840Z 34015G22KT 03/M07 A3008 RMK A01 T00251067  RH  051%=      5-min Rain = 0
KDVS 020845Z 34016G25KT 03/M07 A3009 RMK A01 T00251065  RH  052%=      5-min Rain = 0
KDVS 020850Z 35016G21KT 02/M06 A3009 RMK A01 T00241062  RH  053%=      5-min Rain = 0
KDVS 020855Z 35016KT 02/M06 A3009 RMK A01 T00241059  RH  054%=      5-min Rain = 0
KDVS 020900Z 35016G21KT 02/M06 A3009 RMK A01 T00241057  RH  055%=      5-min Rain = 0
KDVS 020905Z 35016G22KT 02/M06 A3009 RMK A01 T00231055  RH  056%=      5-min Rain = 0
KDVS 020910Z 35015G21KT 02/M05 A3009 RMK A01 T00231054  RH  057%=      5-min Rain = 0
KDVS 020915Z 35017G23KT 02/M05 A3009 RMK A01 T00231053  RH  057%=      5-min Rain = 0
KDVS 020920Z 35017KT 02/M05 A3009 RMK A01 T00241052  RH  058%=      5-min Rain = 0
KDVS 020925Z 35016G24KT 02/M05 A301 RMK A01 T00231051  RH  058%=      5-min Rain = 0
KDVS 020930Z 35014G20KT 02/M05 A301 RMK A01 T00221052  RH  058%=      5-min Rain = 0
KDVS 020935Z 35017G26KT 02/M05 A301 RMK A01 T00221050  RH  059%=      5-min Rain = 0
KDVS 020940Z 35015G21KT 02/M05 A301 RMK A01 T00221050  RH  059%=      5-min Rain = 0
KDVS 020945Z 35015G20KT 02/M05 A301 RMK A01 T00211049  RH  060%=      5-min Rain = 0
KDVS 020950Z 35015G20KT 02/M05 A301 RMK A01 T00211049  RH  060%=      5-min Rain = 0
KDVS 020955Z 35016G22KT 02/M05 A301 RMK A01 T00211048  RH  061%=      5-min Rain = 0
KDVS 021000Z 35016G22KT 02/M05 A301 RMK A01 T00211047  RH  061%=      5-min Rain = 0
KDVS 021005Z 35016KT 02/M05 A301 RMK A01 T00201047  RH  061%=      5-min Rain = 0
KDVS 021010Z 35017G22KT 02/M05 A3011 RMK A01 T00201046  RH  062%=      5-min Rain = 0
KDVS 021015Z 35016G21KT 02/M05 A3011 RMK A01 T00201046  RH  062%=      5-min Rain = 0
KDVS 021020Z 35018G23KT 02/M05 A3011 RMK A01 T00201045  RH  062%=      5-min Rain = 0
KDVS 021025Z 35017G22KT 02/M05 A3011 RMK A01 T00201045  RH  062%=      5-min Rain = 0
KDVS 021030Z 35016G21KT 02/M05 A3011 RMK A01 T00191045  RH  063%=      5-min Rain = 0
KDVS 021035Z 35016G24KT 02/M05 A3012 RMK A01 T00191045  RH  063%=      5-min Rain = 0
KDVS 021040Z 35015G21KT 02/M05 A3012 RMK A01 T00181045  RH  063%=      5-min Rain = 0
KDVS 021045Z 35014KT 02/M05 A3012 RMK A01 T00171046  RH  064%=      5-min Rain = 0
KDVS 021050Z 34016G22KT 02/M04 A3013 RMK A01 T00161044  RH  064%=      5-min Rain = 0
KDVS 021055Z 34017KT 02/M04 A3012 RMK A01 T00171043  RH  064%=      5-min Rain = 0
KDVS 021100Z 35015KT 02/M04 A3013 RMK A01 T00151043  RH  065%=      5-min Rain = 0
KDVS 021105Z 35014G19KT 01/M04 A3013 RMK A01 T00141043  RH  066%=      5-min Rain = 0
KDVS 021110Z 35016KT 01/M04 A3013 RMK A01 T00141042  RH  067%=      5-min Rain = 0
KDVS 021115Z 35017G23KT 01/M04 A3013 RMK A01 T00131041  RH  068%=      5-min Rain = 0
KDVS 021120Z 35015KT 01/M04 A3013 RMK A01 T00131040  RH  068%=      5-min Rain = 0
KDVS 021125Z 35015G22KT 01/M04 A3013 RMK A01 T00121040  RH  068%=      5-min Rain = 0
KDVS 021130Z 35015KT 01/M04 A3013 RMK A01 T00111040  RH  069%=      5-min Rain = 0
KDVS 021135Z 35015KT 01/M04 A3013 RMK A01 T00111040  RH  069%=      5-min Rain = 0
KDVS 021140Z 35014G19KT 01/M04 A3013 RMK A01 T00101041  RH  069%=      5-min Rain = 0
KDVS 021145Z 35013G18KT 01/M04 A3013 RMK A01 T00091041  RH  069%=      5-min Rain = 0
KDVS 021150Z 35014KT 01/M04 A3013 RMK A01 T00091041  RH  070%=      5-min Rain = 0
KDVS 021155Z 35014KT 01/M04 A3014 RMK A01 T00081041  RH  070%=      5-min Rain = 0
KDVS 021200Z 35014G19KT 01/M04 A3014 RMK A01 T00081041  RH  070%=      5-min Rain = 0
KDVS 021205Z 35014G23KT 01/M04 A3014 RMK A01 T00081041  RH  070%=      5-min Rain = 0
KDVS 021210Z 35016KT 01/M04 A3015 RMK A01 T00091041  RH  069%=      5-min Rain = 0
KDVS 021215Z 35015G20KT 01/M04 A3015 RMK A01 T00091042  RH  069%=      5-min Rain = 0
KDVS 021220Z 35015G21KT 01/M04 A3015 RMK A01 T00081042  RH  069%=      5-min Rain = 0
KDVS 021225Z 35014G20KT 01/M04 A3015 RMK A01 T00071042  RH  070%=      5-min Rain = 0
KDVS 021230Z 35014KT 01/M04 A3016 RMK A01 T00071043  RH  070%=      5-min Rain = 0
KDVS 021235Z 35015KT 01/M04 A3016 RMK A01 T00061043  RH  070%=      5-min Rain = 0
KDVS 021240Z 35015G20KT 01/M04 A3016 RMK A01 T00071043  RH  070%=      5-min Rain = 0
KDVS 021245Z 35014G19KT 01/M04 A3016 RMK A01 T00051044  RH  070%=      5-min Rain = 0
KDVS 021250Z 35016G21KT 01/M04 A3017 RMK A01 T00051043  RH  070%=      5-min Rain = 0
KDVS 021255Z 35015G21KT 01/M04 A3017 RMK A01 T00051044  RH  070%=      5-min Rain = 0
KDVS 021300Z 35014KT 00/M04 A3017 RMK A01 T00041044  RH  071%=      5-min Rain = 0
KDVS 021305Z 35014KT 00/M04 A3018 RMK A01 T00021044  RH  071%=      5-min Rain = 0
KDVS 021310Z 35013KT 00/M04 A3018 RMK A01 T00011044  RH  072%=      5-min Rain = 0
KDVS 021315Z 35013KT 00/05 A3018 RMK A01 T00-00-45  RH  072%=      5-min Rain = 0
KDVS 021320Z 35012G17KT M00/M05 A3018 RMK A01 T10011045  RH  073%=      5-min Rain = 0
KDVS 021325Z 35012G17KT M00/M05 A3019 RMK A01 T10021045  RH  073%=      5-min Rain = 0
KDVS 021330Z 34013KT M00/M05 A3019 RMK A01 T10031045  RH  074%=      5-min Rain = 0
KDVS 021335Z 35012KT M00/M05 A3019 RMK A01 T10041045  RH  074%=      5-min Rain = 0
KDVS 021340Z 35013KT M00/M04 A3019 RMK A01 T10041044  RH  074%=      5-min Rain = 0
KDVS 021345Z 35013KT M00/M04 A302 RMK A01 T10031044  RH  074%=      5-min Rain = 0
KDVS 021350Z 35013G18KT M00/M04 A302 RMK A01 T10031043  RH  074%=      5-min Rain = 0
KDVS 021355Z 35013KT M00/M04 A302 RMK A01 T10031043  RH  075%=      5-min Rain = 0
KDVS 021400Z 34014KT M00/M04 A302 RMK A01 T10021043  RH  074%=      5-min Rain = 0
KDVS 021405Z 35014KT 00/04 A302 RMK A01 T00-00-42  RH  074%=      5-min Rain = 0
KDVS 021410Z 35014KT 00/04 A3021 RMK A01 T00000-42  RH  074%=      5-min Rain = 0
KDVS 021415Z 35012G17KT 00/M04 A3021 RMK A01 T00021041  RH  073%=      5-min Rain = 0
KDVS 021420Z 35012KT 00/M04 A3021 RMK A01 T00031041  RH  073%=      5-min Rain = 0
KDVS 021425Z 35012KT 00/M04 A3021 RMK A01 T00041040  RH  073%=      5-min Rain = 0
KDVS 021430Z 35013G19KT 01/M04 A3021 RMK A01 T00051040  RH  072%=      5-min Rain = 0
KDVS 021435Z 34012G19KT 01/M04 A3022 RMK A01 T00061040  RH  072%=      5-min Rain = 0
KDVS 021440Z 35012G17KT 01/M04 A3022 RMK A01 T00081039  RH  071%=      5-min Rain = 0
KDVS 021445Z 35012G17KT 01/M04 A3023 RMK A01 T00101038  RH  070%=      5-min Rain = 0
KDVS 021450Z 35014G19KT 01/M04 A3023 RMK A01 T00121038  RH  069%=      5-min Rain = 0
KDVS 021455Z 35013KT 01/M04 A3023 RMK A01 T00131038  RH  069%=      5-min Rain = 0
KDVS 021500Z 36013G19KT 02/M04 A3023 RMK A01 T00151037  RH  069%=      5-min Rain = 0
KDVS 021505Z 35017G24KT 02/M04 A3023 RMK A01 T00171038  RH  067%=      5-min Rain = 0
KDVS 021510Z 36015KT 02/M04 A3024 RMK A01 T00191038  RH  066%=      5-min Rain = 0
KDVS 021515Z 36016KT 02/M04 A3024 RMK A01 T00211036  RH  066%=      5-min Rain = 0
KDVS 021520Z 36016G22KT 02/M04 A3024 RMK A01 T00221036  RH  066%=      5-min Rain = 0
KDVS 021525Z 35019G29KT 02/M04 A3025 RMK A01 T00221036  RH  066%=      5-min Rain = 0
KDVS 021530Z 36017G23KT 02/M04 A3025 RMK A01 T00221036  RH  066%=      5-min Rain = 0
KDVS 021535Z 35018G27KT 02/M04 A3025 RMK A01 T00221037  RH  065%=      5-min Rain = 0
KDVS 021540Z 36018G25KT 02/M04 A3026 RMK A01 T00211040  RH  064%=      5-min Rain = 0
KDVS 021545Z 35018KT 02/M04 A3026 RMK A01 T00211040  RH  064%=      5-min Rain = 0
KDVS 021550Z 35017G22KT 02/M04 A3026 RMK A01 T00201040  RH  065%=      5-min Rain = 0
KDVS 021555Z 35018G23KT 02/M04 A3027 RMK A01 T00201040  RH  065%=      5-min Rain = 0
KDVS 021600Z 35017G25KT 02/M04 A3027 RMK A01 T00191038  RH  066%=      5-min Rain = 0
KDVS 021605Z 35018G26KT 02/M04 A3027 RMK A01 T00191040  RH  065%=      5-min Rain = 0
KDVS 021610Z 00019G24KT 02/M04 A3027 RMK A01 T00201042  RH  063%=      5-min Rain = 0
KDVS 021615Z 01018G27KT 02/M05 A3028 RMK A01 T00221045  RH  061%=      5-min Rain = 0
KDVS 021620Z 00017G24KT 02/M05 A3028 RMK A01 T00231045  RH  061%=      5-min Rain = 0
KDVS 021625Z 00017G23KT 02/M04 A3028 RMK A01 T00221042  RH  063%=      5-min Rain = 0
KDVS 021630Z 36017KT 02/M04 A3028 RMK A01 T00221041  RH  063%=      5-min Rain = 0
KDVS 021635Z 35017G24KT 02/M04 A3029 RMK A01 T00221043  RH  062%=      5-min Rain = 0
KDVS 021640Z 35019G26KT 02/M05 A3029 RMK A01 T00221045  RH  061%=      5-min Rain = 0
KDVS 021645Z 36021G26KT 02/M05 A3029 RMK A01 T00231048  RH  060%=      5-min Rain = 0
KDVS 021650Z 00019G24KT 02/M05 A3029 RMK A01 T00221049  RH  060%=      5-min Rain = 0
KDVS 021655Z 00020G25KT 02/M05 A3029 RMK A01 T00221049  RH  059%=      5-min Rain = 0
KDVS 021700Z 35018G23KT 02/M05 A3029 RMK A01 T00231050  RH  059%=      5-min Rain = 0
KDVS 021705Z 36019G25KT 02/M05 A3029 RMK A01 T00241050  RH  059%=      5-min Rain = 0
KDVS 021710Z 00019G25KT 02/M05 A3029 RMK A01 T00241049  RH  059%=      5-min Rain = 0
KDVS 021715Z 02017G22KT 02/M05 A3029 RMK A01 T00231049  RH  059%=      5-min Rain = 0
KDVS 021720Z 01018G23KT 02/M05 A3029 RMK A01 T00221048  RH  060%=      5-min Rain = 0
KDVS 021725Z 00019G25KT 02/M05 A3029 RMK A01 T00231048  RH  060%=      5-min Rain = 0
KDVS 021730Z 01019G25KT 02/M05 A303 RMK A01 T00231050  RH  059%=      5-min Rain = 0
KDVS 021735Z 01019KT 02/M05 A303 RMK A01 T00241052  RH  058%=      5-min Rain = 0
KDVS 021740Z 01019G26KT 02/M05 A303 RMK A01 T00241053  RH  057%=      5-min Rain = 0
KDVS 021745Z 01019G27KT 03/M05 A3029 RMK A01 T00251054  RH  056%=      5-min Rain = 0
KDVS 021750Z 01017G24KT 03/M05 A3029 RMK A01 T00251052  RH  057%=      5-min Rain = 0
KDVS 021755Z 00019G24KT 02/M05 A3029 RMK A01 T00241053  RH  057%=      5-min Rain = 0
KDVS 021800Z 01020KT 02/M05 A3029 RMK A01 T00241054  RH  057%=      5-min Rain = 0
KDVS 021805Z 01017G24KT 03/M05 A3029 RMK A01 T00251053  RH  056%=      5-min Rain = 0
KDVS 021810Z 01019G26KT 03/M05 A3029 RMK A01 T00251052  RH  057%=      5-min Rain = 0
KDVS 021815Z 01017G23KT 03/M05 A3029 RMK A01 T00251052  RH  057%=      5-min Rain = 0
KDVS 021820Z 01017G23KT 03/M05 A3029 RMK A01 T00251052  RH  057%=      5-min Rain = 0
KDVS 021825Z 01017G22KT 02/M05 A3028 RMK A01 T00241051  RH  058%=      5-min Rain = 0
KDVS 021830Z 01017G23KT 02/M05 A3028 RMK A01 T00241050  RH  058%=      5-min Rain = 0
KDVS 021835Z 00017G22KT 02/M05 A3028 RMK A01 T00231050  RH  058%=      5-min Rain = 0
KDVS 021840Z 00017G24KT 03/M05 A3028 RMK A01 T00251053  RH  057%=      5-min Rain = 0
KDVS 021845Z 01022KT 03/M06 A3028 RMK A01 T00261055  RH  055%=      5-min Rain = 0
KDVS 021850Z 36019G26KT 03/M06 A3028 RMK A01 T00301056  RH  053%=      5-min Rain = 0
KDVS 021855Z 00021G26KT 03/M06 A3027 RMK A01 T00291059  RH  053%=      5-min Rain = 0
KDVS 021900Z 01019G26KT 03/M06 A3027 RMK A01 T00271057  RH  054%=      5-min Rain = 0
KDVS 021905Z 01017G24KT 03/M05 A3027 RMK A01 T00291054  RH  055%=      5-min Rain = 0
KDVS 021910Z 35019G24KT 03/M06 A3027 RMK A01 T00301057  RH  053%=      5-min Rain = 0
KDVS 021915Z 00018G23KT 03/M06 A3027 RMK A01 T00311058  RH  052%=      5-min Rain = 0
KDVS 021920Z 35015G21KT 03/M06 A3027 RMK A01 T00321057  RH  052%=      5-min Rain = 0
KDVS 021925Z 00018KT 03/M06 A3028 RMK A01 T00321057  RH  052%=      5-min Rain = 0
KDVS 021930Z 36018G25KT 03/M06 A3027 RMK A01 T00301057  RH  053%=      5-min Rain = 0
KDVS 021935Z 36016G21KT 03/M06 A3027 RMK A01 T00331058  RH  051%=      5-min Rain = 0
KDVS 021940Z 00018G24KT 04/M06 A3027 RMK A01 T00351060  RH  050%=      5-min Rain = 0
KDVS 021945Z 00019G24KT 03/M06 A3027 RMK A01 T00341061  RH  050%=      5-min Rain = 0
KDVS 021950Z 35019G24KT 03/M06 A3027 RMK A01 T00331061  RH  050%=      5-min Rain = 0
KDVS 021955Z 01017G22KT 03/M06 A3027 RMK A01 T00341060  RH  050%=      5-min Rain = 0
KDVS 022000Z 00018KT 04/M06 A3026 RMK A01 T00361058  RH  050%=      5-min Rain = 0
KDVS 022005Z 36016G21KT 04/M06 A3026 RMK A01 T00381059  RH  049%=      5-min Rain = 0
KDVS 022010Z 35016G21KT 04/M06 A3026 RMK A01 T00361061  RH  049%=      5-min Rain = 0
KDVS 022015Z 36016G21KT 04/M06 A3026 RMK A01 T00411059  RH  048%=      5-min Rain = 0
KDVS 022020Z 36018G23KT 04/M06 A3025 RMK A01 T00381064  RH  047%=      5-min Rain = 0
KDVS 022025Z 36018G25KT 04/M06 A3025 RMK A01 T00361064  RH  048%=      5-min Rain = 0
KDVS 022030Z 36018G23KT 04/M06 A3025 RMK A01 T00371063  RH  048%=      5-min Rain = 0
KDVS 022035Z 00017G25KT 04/M06 A3025 RMK A01 T00361062  RH  049%=      5-min Rain = 0
KDVS 022040Z 36017KT 04/M06 A3025 RMK A01 T00371062  RH  048%=      5-min Rain = 0
KDVS 022045Z 36018G24KT 04/M06 A3025 RMK A01 T00351064  RH  048%=      5-min Rain = 0
KDVS 022050Z 00016G22KT 04/M06 A3025 RMK A01 T00371063  RH  048%=      5-min Rain = 0
KDVS 022055Z 36018G24KT 04/M06 A3025 RMK A01 T00361064  RH  048%=      5-min Rain = 0
KDVS 022100Z 00021G26KT 04/M07 A3024 RMK A01 T00351066  RH  047%=      5-min Rain = 0
KDVS 022105Z 00021G29KT 04/M07 A3024 RMK A01 T00361069  RH  046%=      5-min Rain = 0
KDVS 022110Z 00021G28KT 04/M07 A3024 RMK A01 T00361067  RH  047%=      5-min Rain = 0
KDVS 022115Z 36017G24KT 04/M07 A3025 RMK A01 T00361065  RH  047%=      5-min Rain = 0
KDVS 022120Z 36015G22KT 04/M07 A3025 RMK A01 T00371067  RH  047%=      5-min Rain = 0
KDVS 022125Z 00017G24KT 04/M07 A3025 RMK A01 T00361070  RH  046%=      5-min Rain = 0
KDVS 022130Z 01018G24KT 03/M07 A3025 RMK A01 T00311070  RH  048%=      5-min Rain = 0
KDVS 022135Z 00018G23KT 03/M07 A3025 RMK A01 T00321068  RH  048%=      5-min Rain = 0
KDVS 022140Z 36016G22KT 03/M07 A3025 RMK A01 T00331068  RH  047%=      5-min Rain = 0
KDVS 022145Z 35016G22KT 03/M07 A3025 RMK A01 T00341072  RH  046%=      5-min Rain = 0
KDVS 022150Z 00018G24KT 04/M07 A3026 RMK A01 T00361073  RH  045%=      5-min Rain = 0
KDVS 022155Z 36018G23KT 03/M07 A3026 RMK A01 T00331074  RH  045%=      5-min Rain = 0
KDVS 022200Z 34015KT 03/M08 A3026 RMK A01 T00331075  RH  045%=      5-min Rain = 0
KDVS 022205Z 35015G21KT 04/M07 A3026 RMK A01 T00361074  RH  044%=      5-min Rain = 0
KDVS 022210Z 36018G25KT 04/M08 A3026 RMK A01 T00381075  RH  043%=      5-min Rain = 0
KDVS 022215Z 35015KT 04/M08 A3026 RMK A01 T00351075  RH  045%=      5-min Rain = 0
KDVS 022220Z 35016G24KT 03/M08 A3026 RMK A01 T00341075  RH  045%=      5-min Rain = 0
KDVS 022225Z 35017G24KT 03/M08 A3026 RMK A01 T00331077  RH  044%=      5-min Rain = 0
KDVS 022230Z 35017G25KT 03/M08 A3026 RMK A01 T00321076  RH  045%=      5-min Rain = 0
KDVS 022235Z 35017G23KT 03/M08 A3026 RMK A01 T00331075  RH  045%=      5-min Rain = 0
KDVS 022240Z 35017G22KT 03/M08 A3026 RMK A01 T00341075  RH  045%=      5-min Rain = 0
KDVS 022245Z 00020KT 03/M08 A3026 RMK A01 T00331076  RH  045%=      5-min Rain = 0
KDVS 022250Z 00019G25KT 03/M08 A3026 RMK A01 T00311077  RH  045%=      5-min Rain = 0
KDVS 022255Z 00018G25KT 03/M08 A3027 RMK A01 T00301077  RH  045%=      5-min Rain = 0
KDVS 022300Z 00017G26KT 03/M08 A3027 RMK A01 T00291077  RH  045%=      5-min Rain = 0
KDVS 022305Z 00019G25KT 03/M08 A3027 RMK A01 T00291077  RH  045%=      5-min Rain = 0
KDVS 022310Z 00016G21KT 03/M08 A3027 RMK A01 T00291077  RH  046%=      5-min Rain = 0
KDVS 022315Z 00015G21KT 03/M08 A3027 RMK A01 T00281076  RH  047%=      5-min Rain = 0
KDVS 022320Z 00017G22KT 03/M08 A3027 RMK A01 T00271076  RH  047%=      5-min Rain = 0
KDVS 022325Z 00019G25KT 03/M08 A3027 RMK A01 T00251077  RH  047%=      5-min Rain = 0
KDVS 022330Z 00017G23KT 02/M08 A3027 RMK A01 T00231077  RH  048%=      5-min Rain = 0
KDVS 022335Z 00018G23KT 02/M08 A3027 RMK A01 T00211077  RH  048%=      5-min Rain = 0
KDVS 022340Z 36014G20KT 02/M08 A3027 RMK A01 T00181077  RH  049%=      5-min Rain = 0
KDVS 022345Z 00016G23KT 02/M08 A3028 RMK A01 T00171077  RH  050%=      5-min Rain = 0
KDVS 022350Z 36016G21KT 02/M08 A3028 RMK A01 T00161078  RH  050%=      5-min Rain = 0
KDVS 022355Z 36014G19KT 02/M08 A3028 RMK A01 T00151079  RH  050%=      5-min Rain = 0
KDVS 030000Z 36014KT 01/M08 A3028 RMK A01 T00141078  RH  051%=      5-min Rain = 0
KDVS 030005Z 36013KT 01/M08 A3029 RMK A01 T00121078  RH  051%=      5-min Rain = 0
KDVS 030010Z 00013G19KT 01/M08 A3029 RMK A01 T00101078  RH  052%=      5-min Rain = 0
KDVS 030015Z 00012G17KT 01/M08 A3029 RMK A01 T00091078  RH  052%=      5-min Rain = 0
KDVS 030020Z 01012KT 01/M08 A303 RMK A01 T00071079  RH  053%=      5-min Rain = 0
KDVS 030025Z 01011KT 01/M08 A303 RMK A01 T00051079  RH  054%=      5-min Rain = 0
KDVS 030030Z 01012KT 00/M08 A303 RMK A01 T00041078  RH  054%=      5-min Rain = 0
KDVS 030035Z 01011KT 00/M08 A303 RMK A01 T00021078  RH  055%=      5-min Rain = 0
KDVS 030040Z 01012KT 00/M08 A3031 RMK A01 T00011076  RH  056%=      5-min Rain = 0
KDVS 030045Z 01012KT 00/08 A3031 RMK A01 T00-00-75  RH  057%=      5-min Rain = 0
KDVS 030050Z 00012KT M00/M08 A3031 RMK A01 T10011075  RH  057%=      5-min Rain = 0
KDVS 030055Z 01014G20KT M00/M08 A3031 RMK A01 T10011075  RH  057%=      5-min Rain = 0
KDVS 030100Z 00013KT M00/M08 A3031 RMK A01 T10011075  RH  057%=      5-min Rain = 0
KDVS 030105Z 01014KT M00/M08 A3031 RMK A01 T10031076  RH  058%=      5-min Rain = 0
KDVS 030110Z 00013KT M00/M08 A3031 RMK A01 T10041076  RH  058%=      5-min Rain = 0
KDVS 030115Z 00012KT M01/M08 A3031 RMK A01 T10051077  RH  058%=      5-min Rain = 0
KDVS 030120Z 36011KT M01/M08 A3032 RMK A01 T10071077  RH  059%=      5-min Rain = 0
KDVS 030125Z 36010KT M01/M08 A3032 RMK A01 T10081077  RH  060%=      5-min Rain = 0
KDVS 030130Z 36010KT M01/M08 A3032 RMK A01 T10101077  RH  060%=      5-min Rain = 0
KDVS 030135Z 35009KT M01/M08 A3032 RMK A01 T10111077  RH  061%=      5-min Rain = 0
KDVS 030140Z 35009KT M01/M08 A3032 RMK A01 T10121077  RH  061%=      5-min Rain = 0
KDVS 030145Z 35008KT M01/M08 A3032 RMK A01 T10131079  RH  061%=      5-min Rain = 0
KDVS 030150Z 35007KT M02/M08 A3032 RMK A01 T10161079  RH  062%=      5-min Rain = 0
KDVS 030155Z 34007KT M02/M08 A3032 RMK A01 T10191080  RH  063%=      5-min Rain = 0
KDVS 030200Z 34007KT M02/M08 A3032 RMK A01 T10201080  RH  063%=      5-min Rain = 0
KDVS 030205Z 34007KT M02/M08 A3033 RMK A01 T10211080  RH  064%=      5-min Rain = 0
KDVS 030210Z 34006KT M02/M08 A3033 RMK A01 T10211080  RH  064%=      5-min Rain = 0
KDVS 030215Z 33006KT M02/M08 A3033 RMK A01 T10211081  RH  064%=      5-min Rain = 0
KDVS 030220Z 33006KT M02/M08 A3034 RMK A01 T10221081  RH  064%=      5-min Rain = 0
KDVS 030225Z 33006KT M02/M08 A3034 RMK A01 T10221081  RH  064%=      5-min Rain = 0
KDVS 030230Z 33007KT M02/M08 A3034 RMK A01 T10231082  RH  064%=      5-min Rain = 0
KDVS 030235Z 33007KT M03/M08 A3034 RMK A01 T10251083  RH  065%=      5-min Rain = 0
KDVS 030240Z 32007KT M03/M08 A3034 RMK A01 T10261083  RH  065%=      5-min Rain = 0
KDVS 030245Z 32007KT M03/M08 A3035 RMK A01 T10281083  RH  066%=      5-min Rain = 0
KDVS 030250Z 32008KT M03/M08 A3035 RMK A01 T10291084  RH  066%=      5-min Rain = 0
KDVS 030255Z 32008KT M03/M08 A3035 RMK A01 T10301084  RH  066%=      5-min Rain = 0
KDVS 030300Z 32008KT M03/M08 A3035 RMK A01 T10311084  RH  067%=      5-min Rain = 0
KDVS 030305Z 32008KT M03/M08 A3035 RMK A01 T10311084  RH  067%=      5-min Rain = 0
KDVS 030310Z 32009KT M03/M08 A3035 RMK A01 T10311084  RH  067%=      5-min Rain = 0
KDVS 030315Z 33009KT M03/M08 A3035 RMK A01 T10321084  RH  067%=      5-min Rain = 0
KDVS 030320Z 33009KT M03/M08 A3035 RMK A01 T10331084  RH  068%=      5-min Rain = 0
KDVS 030325Z 33010KT M03/M08 A3035 RMK A01 T10331083  RH  068%=      5-min Rain = 0
KDVS 030330Z 33010KT M03/M08 A3035 RMK A01 T10311082  RH  068%=      5-min Rain = 0
KDVS 030335Z 33010KT M03/M08 A3035 RMK A01 T10301082  RH  067%=      5-min Rain = 0
KDVS 030340Z 33010KT M03/M08 A3034 RMK A01 T10311083  RH  067%=      5-min Rain = 0
KDVS 030345Z 33010KT M03/M08 A3034 RMK A01 T10331084  RH  068%=      5-min Rain = 0
KDVS 030350Z 32010KT M03/M08 A3034 RMK A01 T10341084  RH  068%=      5-min Rain = 0
KDVS 030355Z 32010KT M03/M08 A3034 RMK A01 T10341084  RH  068%=      5-min Rain = 0
KDVS 030400Z 32010KT M03/M08 A3034 RMK A01 T10341084  RH  068%=      5-min Rain = 0
KDVS 030405Z 32010KT M03/M09 A3034 RMK A01 T10341085  RH  068%=      5-min Rain = 0
KDVS 030410Z 32010KT M04/M09 A3034 RMK A01 T10351085  RH  068%=      5-min Rain = 0
KDVS 030415Z 32011KT M04/M09 A3034 RMK A01 T10361086  RH  068%=      5-min Rain = 0
KDVS 030420Z 32011KT M04/M09 A3034 RMK A01 T10371086  RH  068%=      5-min Rain = 0
KDVS 030425Z 32011KT M04/M09 A3033 RMK A01 T10381086  RH  069%=      5-min Rain = 0
KDVS 030430Z 32012KT M04/M09 A3033 RMK A01 T10371086  RH  068%=      5-min Rain = 0
KDVS 030435Z 32011KT M04/M09 A3034 RMK A01 T10361086  RH  068%=      5-min Rain = 0
KDVS 030440Z 32011KT M03/M09 A3034 RMK A01 T10341086  RH  067%=      5-min Rain = 0
KDVS 030445Z 31010KT M04/M09 A3034 RMK A01 T10351087  RH  067%=      5-min Rain = 0
KDVS 030450Z 31009KT M04/M09 A3034 RMK A01 T10361087  RH  067%=      5-min Rain = 0
KDVS 030455Z 31009KT M04/M09 A3035 RMK A01 T10361087  RH  068%=      5-min Rain = 0
KDVS 030500Z 30009KT M04/M09 A3035 RMK A01 T10361088  RH  067%=      5-min Rain = 0
KDVS 030505Z 30008KT M04/M09 A3035 RMK A01 T10371089  RH  067%=      5-min Rain = 0
KDVS 030510Z 29007KT M04/M09 A3035 RMK A01 T10411090  RH  068%=      5-min Rain = 0
KDVS 030515Z 28007KT M04/M09 A3035 RMK A01 T10431092  RH  069%=      5-min Rain = 0
KDVS 030520Z 28007KT M05/M09 A3035 RMK A01 T10471094  RH  069%=      5-min Rain = 0
KDVS 030525Z 28007KT M05/M10 A3035 RMK A01 T10501096  RH  070%=      5-min Rain = 0
KDVS 030530Z 29006KT M05/M10 A3035 RMK A01 T10531096  RH  071%=      5-min Rain = 0
KDVS 030535Z 29007KT M05/M10 A3034 RMK A01 T10541096  RH  072%=      5-min Rain = 0
KDVS 030540Z 29007KT M06/M10 A3034 RMK A01 T10551097  RH  072%=      5-min Rain = 0
KDVS 030545Z 30007KT M06/M10 A3034 RMK A01 T10581099  RH  072%=      5-min Rain = 0
KDVS 030550Z 30008KT M06/M10 A3035 RMK A01 T10581099  RH  073%=      5-min Rain = 0
KDVS 030555Z 30009KT M06/M10 A3035 RMK A01 T10571097  RH  073%=      5-min Rain = 0

Page generated in 0.0107 seconds.